Arlington Center, Vermont
Current Conditions -  °F | °C
As of 9:54 AM on Thursday 30 Oct 2014 (Local Time) from KDDH Reporting Station
Overcast Overcast  
Wind Chill: 44°   Ceiling: 4900
Heat Index: 47°   Visibility: 10mi
Dew Point: 38°   Wind: 7mph
Humidity: 71%   Direction: 290°WNW
Pressure: 29.96"   Gusts: NA
Location:  43.1041°N, 73.154°W
Report Text: KDDH 301354Z AUTO 29006KT 10SM FEW019 BKN049 OVC060 08/03 A2996 RMK AO2 SLP149 T00830033
Loading
Personal Weather Stations






























Interactive Weather Map
Tropical Storm Tracking
New forecast layout! Learn more

10-Day Weather Forecast

Advertisements
Track Severe Weather on mobile